Time;durP1;ratioP1;P1;durP2;ratioP2;P2;SDS_P1;SDS_P2;PMS_P1;PMS_P2;Temp;Humidity;BMP_temperature;BMP_pressure;BME280_temperature;BME280_humidity;BME280_pressure;Samples;Min_cycle;Max_cycle;Signal;HPM_P1;HPM_P2
2023/01/19 00:01:24;;;;;;;19.63;10.55;;;;;;;2.36;82.17;100028.75;5019961;28;20033;-87
2023/01/19 00:03:50;;;;;;;17.08;11.15;;;;;;;2.52;81.82;100046.69;5028119;28;20033;-87
2023/01/19 00:06:16;;;;;;;18.10;10.95;;;;;;;2.52;81.82;100040.63;5030352;28;20024;-86
2023/01/19 00:08:44;;;;;;;22.33;12.13;;;;;;;2.52;81.93;100040.63;5027020;28;20029;-87
2023/01/19 00:11:11;;;;;;;18.05;11.13;;;;;;;2.57;81.64;100045.75;5003799;28;20469;-86
2023/01/19 00:13:37;;;;;;;19.80;10.88;;;;;;;2.51;81.59;100033.66;5009204;28;20026;-86
2023/01/19 00:16:02;;;;;;;21.42;12.57;;;;;;;2.52;81.60;100036.25;5009212;28;20084;-87
2023/01/19 00:18:27;;;;;;;15.43;9.82;;;;;;;2.52;81.67;100048.47;5007117;28;20029;-87
2023/01/19 00:20:53;;;;;;;17.92;11.82;;;;;;;2.51;81.63;100044.97;5003823;28;20025;-87
2023/01/19 00:23:19;;;;;;;20.77;11.63;;;;;;;2.52;81.74;100044.09;5009292;28;20029;-87
2023/01/19 00:25:46;;;;;;;18.33;11.38;;;;;;;2.46;82.16;100043.34;5027747;28;20030;-87
2023/01/19 00:28:14;;;;;;;19.10;11.27;;;;;;;2.50;81.93;100048.47;5024998;28;20094;-87
2023/01/19 00:30:40;;;;;;;17.73;10.57;;;;;;;2.49;81.78;100054.56;5024381;28;20264;-87
2023/01/19 00:33:06;;;;;;;20.05;11.77;;;;;;;2.46;81.82;100044.19;5030473;28;20115;-86
2023/01/19 00:35:33;;;;;;;18.65;11.50;;;;;;;2.54;81.87;100065.78;5013341;28;20444;-87
2023/01/19 00:37:59;;;;;;;18.83;11.98;;;;;;;2.54;82.28;100067.53;5031635;28;20449;-87
2023/01/19 00:40:26;;;;;;;19.90;11.27;;;;;;;2.63;81.86;100072.56;5031629;28;20401;-87
2023/01/19 00:42:52;;;;;;;20.88;11.63;;;;;;;2.64;81.80;100071.66;5013536;28;20049;-87
2023/01/19 00:45:21;;;;;;;18.45;10.93;;;;;;;2.53;81.73;100058.00;5030594;28;20030;-87
2023/01/19 00:47:48;;;;;;;17.88;10.25;;;;;;;2.60;81.70;100063.94;5003372;28;20064;-86
2023/01/19 00:50:15;;;;;;;18.08;10.88;;;;;;;2.58;81.94;100063.13;5031698;28;20056;-87
2023/01/19 00:52:42;;;;;;;22.17;12.70;;;;;;;2.57;82.30;100050.97;5013140;28;20025;-87
2023/01/19 00:55:10;;;;;;;19.27;11.23;;;;;;;2.50;82.40;100047.59;5033747;28;20152;-87
2023/01/19 00:57:35;;;;;;;14.75;8.77;;;;;;;2.52;81.99;100040.63;5025731;28;20500;-87
2023/01/19 01:00:01;;;;;;;19.58;13.50;;;;;;;2.42;82.09;100039.94;5013308;28;20057;-87
2023/01/19 01:02:26;;;;;;;16.13;10.30;;;;;;;2.41;82.06;100034.75;5030933;28;20495;-87
2023/01/19 01:04:53;;;;;;;24.77;15.68;;;;;;;2.31;82.26;100049.72;5009541;28;20028;-87
2023/01/19 01:07:20;;;;;;;20.17;11.65;;;;;;;2.33;82.27;100049.69;5015767;28;20036;-87
2023/01/19 01:09:45;;;;;;;21.00;10.45;;;;;;;2.40;82.36;100051.28;5011787;28;20417;-86
2023/01/19 01:12:10;;;;;;;20.13;11.68;;;;;;;2.40;82.00;100049.53;5027562;28;20029;-87
2023/01/19 01:14:36;;;;;;;21.02;12.55;;;;;;;2.30;82.14;100045.41;5028948;28;20439;-86
2023/01/19 01:17:01;;;;;;;17.05;9.73;;;;;;;2.45;81.43;100052.06;5029103;28;20048;-87
2023/01/19 01:19:26;;;;;;;17.60;11.23;;;;;;;2.39;81.90;100049.59;5009552;28;20049;-87
2023/01/19 01:21:52;;;;;;;18.42;10.70;;;;;;;2.34;81.93;100052.28;5004651;28;20101;-86
2023/01/19 01:24:17;;;;;;;16.35;9.93;;;;;;;2.42;81.51;100060.78;5005271;28;20028;-86
2023/01/19 01:26:43;;;;;;;22.73;12.27;;;;;;;2.40;81.82;100064.34;5025713;28;20022;-87
2023/01/19 01:29:08;;;;;;;21.35;11.20;;;;;;;2.42;81.78;100059.94;5009482;28;20034;-86
2023/01/19 01:31:34;;;;;;;20.58;11.10;;;;;;;2.47;81.77;100063.31;5029729;28;20029;-87
2023/01/19 01:33:59;;;;;;;14.43;9.55;;;;;;;2.46;81.50;100054.63;5029742;28;20025;-87
2023/01/19 01:36:27;;;;;;;20.73;12.13;;;;;;;2.51;81.79;100067.59;5011985;28;20061;-87
2023/01/19 01:38:53;;;;;;;21.48;10.63;;;;;;;2.50;81.84;100058.91;5009647;28;20029;-86
2023/01/19 01:41:18;;;;;;;19.35;11.10;;;;;;;2.43;81.62;100040.81;5012951;28;20390;-87
2023/01/19 01:43:52;;;;;;;21.63;11.77;;;;;;;2.56;81.32;100068.34;5027924;28;20472;-86
2023/01/19 01:46:18;;;;;;;17.25;9.73;;;;;;;2.61;81.02;100056.09;5020961;28;20136;-87
2023/01/19 01:48:59;;;;;;;16.20;9.30;;;;;;;2.62;81.25;100062.19;5012200;28;20112;-86
2023/01/19 01:51:30;;;;;;;26.23;11.23;;;;;;;2.70;81.23;100068.06;5028924;28;20525;-86
2023/01/19 01:54:05;;;;;;;16.65;9.98;;;;;;;2.73;80.94;100065.41;5002351;28;20316;-87
2023/01/19 01:56:37;;;;;;;20.80;9.98;;;;;;;2.64;81.32;100053.41;5029961;28;20549;-87
2023/01/19 01:59:11;;;;;;;15.48;9.90;;;;;;;2.63;81.42;100067.34;5029374;28;20538;-87
2023/01/19 02:04:20;;;;;;;15.93;9.60;;;;;;;2.54;82.17;100063.16;5031183;28;20123;-86
2023/01/19 02:15:03;;;;;;;12.52;7.13;;;;;;;2.32;83.12;100074.03;5028089;28;20114;-87
2023/01/19 02:17:29;;;;;;;13.10;7.13;;;;;;;2.25;82.97;100078.53;5009798;28;20037;-86
2023/01/19 02:19:54;;;;;;;14.35;8.05;;;;;;;2.18;83.01;100077.75;5027116;28;20058;-87
2023/01/19 02:22:34;;;;;;;17.83;8.15;;;;;;;2.15;83.53;100077.84;5007470;28;20038;-87
2023/01/19 02:25:02;;;;;;;17.15;7.85;;;;;;;2.13;83.45;100082.22;5015773;28;20031;-87
2023/01/19 02:27:27;;;;;;;11.05;6.53;;;;;;;2.06;83.45;100082.38;5010360;28;20625;-87
2023/01/19 02:29:53;;;;;;;15.35;8.20;;;;;;;1.90;83.64;100066.09;5012092;28;20037;-87
2023/01/19 02:32:19;;;;;;;16.05;8.25;;;;;;;1.97;83.28;100088.59;5007519;28;20536;-88
2023/01/19 02:34:44;;;;;;;16.58;9.05;;;;;;;1.93;83.62;100076.50;5027276;28;20033;-87
2023/01/19 02:37:11;;;;;;;19.35;8.65;;;;;;;2.38;82.09;100074.81;5006092;28;20096;-88
2023/01/19 02:39:39;;;;;;;12.73;7.00;;;;;;;1.95;83.34;100077.31;5007484;28;20087;-88
2023/01/19 02:42:09;;;;;;;16.77;7.95;;;;;;;1.97;83.78;100085.97;5007225;28;20370;-87
2023/01/19 02:44:37;;;;;;;14.98;7.80;;;;;;;1.98;84.13;100093.78;4991854;28;20505;-87
2023/01/19 02:47:03;;;;;;;14.27;8.15;;;;;;;1.99;83.49;100097.22;5026278;28;20503;-87
2023/01/19 02:49:29;;;;;;;14.90;8.30;;;;;;;1.95;84.26;100100.78;5026051;28;20056;-87
2023/01/19 02:51:54;;;;;;;12.98;8.27;;;;;;;2.46;82.73;100109.41;5010308;28;20068;-86
2023/01/19 02:54:47;;;;;;;16.30;9.35;;;;;;;2.59;81.60;100102.22;5026665;28;20500;-87
2023/01/19 02:57:42;;;;;;;17.73;9.15;;;;;;;2.68;80.90;100102.03;5006216;28;20025;-87
2023/01/19 03:00:31;;;;;;;14.40;9.73;;;;;;;2.58;81.22;100097.03;5025418;28;20035;-87
2023/01/19 03:03:29;;;;;;;17.77;9.85;;;;;;;1.96;83.40;100103.38;5027581;28;20465;-87
2023/01/19 03:06:07;;;;;;;16.30;9.00;;;;;;;2.27;81.99;100103.69;5027668;28;20440;-88
2023/01/19 03:08:36;;;;;;;14.23;9.90;;;;;;;1.95;83.60;100117.28;5027771;28;20181;-87
2023/01/19 03:11:05;;;;;;;14.88;9.00;;;;;;;1.75;84.22;100104.56;5007317;28;20025;-87
2023/01/19 03:13:42;;;;;;;14.43;8.80;;;;;;;1.77;84.42;100117.56;5027065;28;20481;-88
2023/01/19 03:16:12;;;;;;;12.13;7.75;;;;;;;2.44;81.84;100119.03;5022538;28;20536;-87
2023/01/19 03:18:41;;;;;;;17.42;10.00;;;;;;;2.48;81.52;100114.63;5025215;28;20080;-87
2023/01/19 03:21:09;;;;;;;16.33;10.45;;;;;;;1.81;83.97;100111.41;5005720;28;20107;-87
2023/01/19 03:23:37;;;;;;;15.07;10.50;;;;;;;1.79;84.72;100127.09;5024176;28;20238;-87
2023/01/19 03:26:04;;;;;;;19.25;12.52;;;;;;;1.82;84.46;100122.72;5028858;28;20048;-87
2023/01/19 03:28:31;;;;;;;16.38;10.93;;;;;;;1.77;84.94;100134.09;5027344;28;20029;-87
2023/01/19 03:31:03;;;;;;;15.93;10.82;;;;;;;1.71;84.65;100130.69;5027083;28;20075;-87
2023/01/19 03:33:35;;;;;;;;;;;;;;;1.77;84.41;100134.09;5004783;28;20056;-87
2023/01/19 03:36:07;;;;;;;16.13;10.10;;;;;;;1.71;84.77;100141.97;5028573;28;20131;-87
2023/01/19 03:38:36;;;;;;;18.20;12.20;;;;;;;1.65;84.87;100133.41;5025033;28;20142;-87
2023/01/19 03:41:07;;;;;;;21.23;11.02;;;;;;;1.67;85.00;100142.06;5005638;28;20116;-87
2023/01/19 03:43:34;;;;;;;19.83;11.82;;;;;;;1.60;85.16;100143.03;5009092;28;20136;-88
2023/01/19 03:46:01;;;;;;;15.45;10.80;;;;;;;1.54;85.49;100141.41;5006627;28;20026;-88
2023/01/19 03:48:26;;;;;;;16.35;11.57;;;;;;;1.46;85.21;100132.81;5027234;28;20119;-88
2023/01/19 03:50:52;;;;;;;17.67;11.90;;;;;;;1.41;85.71;100145.91;5007039;28;20155;-88
2023/01/19 03:53:19;;;;;;;15.52;10.65;;;;;;;1.45;85.85;100151.94;5031604;28;20032;-88
2023/01/19 03:55:47;;;;;;;14.82;9.65;;;;;;;1.48;85.69;100157.94;5026810;28;20100;-88
2023/01/19 03:58:12;;;;;;;13.18;9.10;;;;;;;1.51;85.46;100162.25;5008093;28;20028;-88
2023/01/19 04:00:38;;;;;;;16.15;9.40;;;;;;;1.56;85.28;100173.47;5009892;28;20025;-88
2023/01/19 04:03:05;;;;;;;13.77;9.50;;;;;;;1.34;86.01;100154.69;5004168;28;20605;-88
2023/01/19 04:05:32;;;;;;;13.80;9.93;;;;;;;1.41;85.92;100166.75;5009718;28;20090;-88
2023/01/19 04:07:57;;;;;;;13.48;9.90;;;;;;;1.44;85.82;100182.31;5035102;28;20029;-88
2023/01/19 04:10:23;;;;;;;8.10;6.40;;;;;;;1.45;85.42;100168.44;5009348;28;20030;-88
2023/01/19 04:12:48;;;;;;;12.73;8.98;;;;;;;1.46;85.92;100188.38;5017589;28;20389;-88
2023/01/19 04:15:15;;;;;;;12.02;9.05;;;;;;;1.46;85.69;100190.13;5033627;28;20396;-89
2023/01/19 04:17:40;;;;;;;11.32;7.70;;;;;;;1.45;85.48;100191.00;5034001;28;20130;-89
2023/01/19 04:20:07;;;;;;;8.93;7.80;;;;;;;1.45;85.78;100191.00;5033961;28;20496;-89
2023/01/19 04:22:32;;;;;;;9.45;6.00;;;;;;;1.44;85.73;100189.25;5013188;28;20508;-89
2023/01/19 04:24:58;;;;;;;7.25;5.85;;;;;;;1.43;86.00;100184.94;5030724;28;20021;-89
2023/01/19 04:27:24;;;;;;;7.97;6.05;;;;;;;1.43;86.23;100197.97;5033204;28;20477;-89
2023/01/19 04:29:50;;;;;;;7.07;5.40;;;;;;;1.36;86.20;100184.19;5028315;28;20037;-89
2023/01/19 04:32:15;;;;;;;7.10;5.40;;;;;;;1.40;86.35;100188.47;5015723;28;20090;-90
2023/01/19 04:34:41;;;;;;;7.30;5.90;;;;;;;1.41;85.88;100195.41;5032888;28;20044;-90
2023/01/19 04:37:07;;;;;;;6.10;5.20;;;;;;;1.45;86.17;100207.50;5012326;28;20026;-90
2023/01/19 04:39:32;;;;;;;5.65;4.50;;;;;;;1.39;86.08;100194.53;5029528;28;20389;-89
2023/01/19 04:41:58;;;;;;;7.05;4.97;;;;;;;1.44;86.26;100216.16;5012104;28;20022;-90
2023/01/19 04:44:23;;;;;;;5.80;5.13;;;;;;;1.42;86.24;100214.47;5012542;28;20042;-90
2023/01/19 04:46:50;;;;;;;6.25;4.32;;;;;;;1.39;86.29;100214.50;5015895;28;20034;-90
2023/01/19 04:49:15;;;;;;;3.97;3.58;;;;;;;1.39;86.54;100212.75;5034307;28;20079;-90
2023/01/19 04:51:40;;;;;;;3.70;3.22;;;;;;;1.41;86.00;100221.44;5030808;28;20010;-90
2023/01/19 04:54:08;;;;;;;4.43;3.33;;;;;;;1.33;86.46;100215.47;5030267;28;20056;-90
2023/01/19 04:56:33;;;;;;;4.05;3.50;;;;;;;1.29;86.94;100198.13;5014014;28;20060;-90
2023/01/19 04:58:59;;;;;;;5.07;3.50;;;;;;;1.28;87.24;100206.84;5030290;28;20052;-89
2023/01/19 05:01:25;;;;;;;3.25;2.95;;;;;;;1.28;86.88;100166.03;5032395;28;20092;-89
2023/01/19 05:03:50;;;;;;;3.92;3.15;;;;;;;1.27;87.00;100163.47;5033955;28;20037;-89
2023/01/19 05:06:15;;;;;;;3.38;3.05;;;;;;;1.18;87.66;100147.97;5016130;28;20026;-89
2023/01/19 05:08:41;;;;;;;3.42;3.13;;;;;;;1.15;87.58;100143.66;5010422;28;20049;-89
2023/01/19 05:11:06;;;;;;;5.13;3.97;;;;;;;1.18;88.00;100163.59;5012166;28;20032;-89
2023/01/19 05:13:32;;;;;;;5.50;3.85;;;;;;;1.24;87.50;100159.16;5016612;28;20444;-89
2023/01/19 05:15:57;;;;;;;5.47;4.35;;;;;;;1.23;88.11;100147.03;5015719;28;20120;-89
2023/01/19 05:18:22;;;;;;;5.68;4.30;;;;;;;1.23;87.53;100148.75;5028833;28;20017;-89
2023/01/19 05:20:48;;;;;;;6.18;4.53;;;;;;;1.27;87.34;100143.50;5030824;28;20037;-90
2023/01/19 05:23:13;;;;;;;8.00;4.57;;;;;;;1.26;87.55;100133.97;5031118;28;20469;-90
2023/01/19 05:25:38;;;;;;;6.35;4.63;;;;;;;1.33;87.59;100149.50;5011850;28;20029;-90
2023/01/19 05:28:04;;;;;;;6.07;5.10;;;;;;;1.25;87.33;100128.75;5011828;28;20033;-90
2023/01/19 05:30:29;;;;;;;8.15;4.90;;;;;;;1.26;87.44;100123.56;5029075;28;20362;-90
2023/01/19 05:32:54;;;;;;;5.95;3.58;;;;;;;1.35;87.04;100151.19;5031394;28;20053;-90
2023/01/19 05:35:19;;;;;;;5.32;4.28;;;;;;;1.40;87.04;100161.53;5012037;28;20432;-90
2023/01/19 05:37:45;;;;;;;5.18;4.07;;;;;;;1.44;87.01;100176.25;5028284;28;20026;-90
2023/01/19 05:40:10;;;;;;;5.88;3.58;;;;;;;1.33;86.95;100159.91;5031916;28;20076;-89
2023/01/19 05:42:36;;;;;;;8.20;4.93;;;;;;;1.35;86.89;100172.00;5030640;28;20091;-90
2023/01/19 05:45:01;;;;;;;10.32;6.10;;;;;;;1.33;87.33;100179.00;5012250;28;20072;-90
2023/01/19 05:47:31;;;;;;;9.48;5.88;;;;;;;1.41;87.19;100184.97;5011948;28;20084;-90
2023/01/19 05:49:56;;;;;;;11.40;7.88;;;;;;;1.42;87.15;100191.91;5012306;28;20112;-90
2023/01/19 05:52:23;;;;;;;12.35;7.93;;;;;;;1.39;87.35;100191.06;5010719;28;20568;-90
2023/01/19 05:54:50;;;;;;;13.68;8.20;;;;;;;1.44;87.04;100195.34;5031445;28;20040;-90
2023/01/19 05:57:15;;;;;;;11.23;6.57;;;;;;;1.43;86.66;100190.16;5013131;28;20029;-90
2023/01/19 05:59:41;;;;;;;11.60;8.25;;;;;;;1.38;86.85;100200.63;5025508;28;20095;-90
2023/01/19 06:02:06;;;;;;;12.70;9.00;;;;;;;1.38;87.07;100191.97;5028941;28;20037;-90
2023/01/19 06:04:31;;;;;;;11.77;8.05;;;;;;;1.49;86.73;100206.59;5030660;28;20025;-89
2023/01/19 06:06:57;;;;;;;12.52;8.00;;;;;;;1.50;86.64;100208.28;5029952;28;20052;-89
2023/01/19 06:09:22;;;;;;;11.05;7.22;;;;;;;1.49;86.62;100203.97;5011053;28;20022;-89
2023/01/19 06:11:47;;;;;;;12.27;8.90;;;;;;;1.53;86.53;100207.38;5030630;28;20049;-89
2023/01/19 06:14:13;;;;;;;15.90;8.18;;;;;;;1.38;86.74;100185.00;5028488;28;20018;-89
2023/01/19 06:16:39;;;;;;;15.52;9.38;;;;;;;1.46;86.79;100205.75;5005986;28;20029;-89
2023/01/19 06:19:04;;;;;;;14.75;8.75;;;;;;;1.36;86.88;100188.53;5027209;28;20084;-89
2023/01/19 06:21:29;;;;;;;14.05;9.00;;;;;;;1.44;86.92;100202.28;5009934;28;20112;-89
2023/01/19 06:23:55;;;;;;;15.32;10.13;;;;;;;1.52;86.76;100227.34;5008334;28;20180;-89
2023/01/19 06:26:20;;;;;;;15.13;9.02;;;;;;;1.53;86.89;100229.06;5009491;28;20030;-88
2023/01/19 06:28:46;;;;;;;15.48;9.73;;;;;;;1.38;86.81;100203.22;5025512;28;20040;-88
2023/01/19 06:31:11;;;;;;;13.75;8.95;;;;;;;1.45;86.89;100225.72;5021897;28;20478;-89
2023/01/19 06:33:36;;;;;;;16.23;10.63;;;;;;;1.41;86.90;100213.63;5005234;28;20464;-89
2023/01/19 06:36:02;;;;;;;15.27;9.68;;;;;;;1.48;87.03;100236.09;5010559;28;20040;-88
2023/01/19 06:38:27;;;;;;;17.25;11.13;;;;;;;1.47;87.31;100234.38;5011880;28;20520;-88
2023/01/19 06:40:57;;;;;;;17.95;11.32;;;;;;;1.47;87.02;100243.94;5010947;28;20052;-89
2023/01/19 06:43:22;;;;;;;19.83;12.25;;;;;;;1.49;87.24;100248.25;5026880;28;20458;-89
2023/01/19 06:45:48;;;;;;;17.52;12.60;;;;;;;1.49;87.44;100236.94;5028796;28;20117;-89
2023/01/19 06:48:14;;;;;;;19.50;14.75;;;;;;;1.47;87.44;100241.31;5029312;28;20027;-89
2023/01/19 06:50:39;;;;;;;21.92;14.70;;;;;;;1.45;87.37;100243.97;5012025;28;20451;-89
2023/01/19 06:53:05;;;;;;;22.48;14.98;;;;;;;1.57;87.25;100265.50;5023032;28;20037;-89
2023/01/19 06:55:30;;;;;;;25.45;15.70;;;;;;;1.50;86.94;100259.53;5007720;28;20160;-89
2023/01/19 06:57:57;;;;;;;24.13;15.00;;;;;;;1.55;87.19;100264.69;5027594;28;20116;-89
2023/01/19 07:00:23;;;;;;;23.75;17.17;;;;;;;1.46;87.56;100257.84;5009047;28;20087;-89
2023/01/19 07:02:48;;;;;;;20.25;13.85;;;;;;;1.52;87.33;100263.81;5008940;28;20477;-90
2023/01/19 07:05:13;;;;;;;25.38;17.27;;;;;;;1.63;87.08;100281.94;5010737;28;20473;-89
2023/01/19 07:07:41;;;;;;;21.92;14.85;;;;;;;1.61;87.42;100283.69;5006682;28;20552;-90
2023/01/19 07:10:07;;;;;;;29.33;20.48;;;;;;;1.60;87.71;100283.72;5010353;28;20088;-89
2023/01/19 07:12:33;;;;;;;33.15;19.95;;;;;;;1.61;87.68;100288.03;5008240;28;20025;-89
2023/01/19 07:14:59;;;;;;;31.70;18.70;;;;;;;1.64;87.67;100301.91;5011947;28;20053;-88
2023/01/19 07:17:24;;;;;;;26.27;17.88;;;;;;;1.60;87.50;100278.50;5025692;28;20045;-89
2023/01/19 07:19:51;;;;;;;37.90;21.48;;;;;;;1.68;87.32;100307.91;5026333;28;20036;-89
2023/01/19 07:22:16;;;;;;;32.83;20.35;;;;;;;1.65;87.61;100301.00;5001165;28;20112;-89
2023/01/19 07:24:41;;;;;;;31.73;20.73;;;;;;;1.67;87.39;100295.78;5006563;28;20587;-88
2023/01/19 07:27:07;;;;;;;42.53;20.67;;;;;;;1.66;87.58;100307.09;5005256;28;20064;-89
2023/01/19 07:29:32;;;;;;;33.55;20.63;;;;;;;1.56;88.05;100301.13;5024181;28;20113;-89
2023/01/19 07:31:58;;;;;;;35.65;20.55;;;;;;;1.59;87.73;100306.31;5023612;28;20032;-88
2023/01/19 07:34:23;;;;;;;34.72;20.63;;;;;;;1.45;88.06;100287.38;5028608;28;20033;-88
2023/01/19 07:36:48;;;;;;;31.23;19.55;;;;;;;1.58;87.79;100303.69;5009685;28;20484;-88
2023/01/19 07:39:14;;;;;;;34.20;22.40;;;;;;;1.56;87.99;100310.69;5025653;28;20052;-88
2023/01/19 07:41:39;;;;;;;33.13;19.58;;;;;;;1.56;87.97;100311.53;5013909;28;20026;-88
2023/01/19 07:44:05;;;;;;;35.08;21.90;;;;;;;1.58;88.18;100303.69;5024278;28;20501;-88
2023/01/19 07:46:30;;;;;;;35.63;24.35;;;;;;;1.64;88.26;100324.50;5027048;28;20025;-88
2023/01/19 07:48:55;;;;;;;34.15;19.40;;;;;;;1.62;87.95;100315.81;5020227;28;20496;-88
2023/01/19 07:51:21;;;;;;;34.53;21.58;;;;;;;1.64;87.95;100338.38;5027851;28;20033;-89
2023/01/19 07:53:49;;;;;;;33.90;20.08;;;;;;;1.58;87.67;100327.16;5008541;28;20021;-88
2023/01/19 07:56:15;;;;;;;31.40;18.38;;;;;;;1.58;87.54;100333.22;5028416;28;20076;-89
2023/01/19 07:58:40;;;;;;;35.80;19.95;;;;;;;1.57;87.93;100331.50;5005640;28;20466;-88
2023/01/19 08:01:11;;;;;;;38.72;20.58;;;;;;;1.57;87.80;100338.47;5026577;28;20029;-88
2023/01/19 08:03:37;;;;;;;35.03;19.95;;;;;;;1.59;87.67;100345.38;5006099;28;20039;-88
2023/01/19 08:06:04;;;;;;;42.08;23.33;;;;;;;1.60;87.63;100354.06;5000671;28;20116;-88
2023/01/19 08:08:29;;;;;;;24.90;14.00;;;;;;;1.58;87.51;100348.00;5009401;28;20029;-88
2023/01/19 08:10:55;;;;;;;34.28;20.25;;;;;;;1.51;87.67;100342.84;5007903;28;20029;-88
2023/01/19 08:13:20;;;;;;;35.10;20.65;;;;;;;1.49;87.95;100344.63;5009180;28;20026;-88
2023/01/19 08:15:52;;;;;;;36.63;21.70;;;;;;;1.53;87.87;100348.03;5024716;28;20425;-88
2023/01/19 08:18:18;;;;;;;33.33;20.08;;;;;;;1.55;87.48;100348.91;5029622;28;20034;-88
2023/01/19 08:20:44;;;;;;;34.20;19.60;;;;;;;1.59;87.73;100357.56;5029079;28;20030;-88
2023/01/19 08:23:10;;;;;;;35.30;20.45;;;;;;;1.68;87.80;100376.56;5027684;28;20025;-88
2023/01/19 08:25:38;;;;;;;35.55;20.05;;;;;;;1.66;87.41;100370.47;5025029;28;20032;-88
2023/01/19 08:28:05;;;;;;;34.80;20.02;;;;;;;1.66;87.33;100380.91;5023856;28;20036;-88
2023/01/19 08:30:31;;;;;;;36.10;20.98;;;;;;;1.77;87.37;100399.00;5024415;28;20496;-88
2023/01/19 08:33:02;;;;;;;42.38;21.42;;;;;;;1.73;87.87;100398.19;5024010;28;20026;-88
2023/01/19 08:35:39;;;;;;;42.75;21.00;;;;;;;1.83;87.58;100404.19;5022016;28;20037;-88
2023/01/19 08:38:06;;;;;;;38.60;20.48;;;;;;;1.85;87.39;100404.16;5017012;28;20112;-88
2023/01/19 08:40:33;;;;;;;44.25;20.88;;;;;;;1.91;87.48;100398.84;5018434;28;20539;-88
2023/01/19 08:43:02;;;;;;;43.53;20.23;;;;;;;2.01;87.04;100423.94;5027752;28;20518;-88
2023/01/19 08:45:28;;;;;;;40.53;21.10;;;;;;;1.91;86.88;100404.06;5019624;28;20041;-87
2023/01/19 08:47:55;;;;;;;48.35;20.48;;;;;;;1.89;86.99;100406.69;5010911;28;20028;-87
2023/01/19 08:50:21;;;;;;;43.97;19.38;;;;;;;1.91;86.79;100410.16;5025167;28;20104;-88
2023/01/19 08:52:46;;;;;;;41.40;20.83;;;;;;;1.92;87.06;100424.06;5010523;28;20033;-88
2023/01/19 08:55:12;;;;;;;43.40;20.13;;;;;;;1.94;86.89;100423.13;5012863;28;20028;-88
2023/01/19 08:57:37;;;;;;;35.13;18.50;;;;;;;1.93;86.67;100417.97;5013572;28;20041;-88
2023/01/19 09:00:03;;;;;;;46.35;20.73;;;;;;;1.95;86.88;100435.28;5008781;28;20470;-87
2023/01/19 09:02:28;;;;;;;48.88;21.42;;;;;;;2.01;86.83;100434.38;5025178;28;20036;-88
2023/01/19 09:04:53;;;;;;;40.42;17.67;;;;;;;2.09;86.71;100429.91;5027265;28;20022;-88
2023/01/19 09:07:19;;;;;;;35.17;18.50;;;;;;;2.26;85.83;100445.38;5020275;28;20706;-87
2023/01/19 09:09:44;;;;;;;41.85;21.10;;;;;;;2.38;85.92;100453.03;5013020;28;20563;-88
2023/01/19 09:12:09;;;;;;;37.97;17.88;;;;;;;2.38;85.65;100444.31;5029341;28;20028;-88
2023/01/19 09:14:35;;;;;;;48.22;22.55;;;;;;;2.32;85.54;100440.06;5006477;28;20034;-88
2023/01/19 09:17:00;;;;;;;45.63;19.98;;;;;;;2.41;85.52;100466.03;5029162;28;20030;-87
2023/01/19 09:19:25;;;;;;;49.97;20.38;;;;;;;2.40;85.43;100458.22;5009797;28;20029;-87
2023/01/19 09:21:53;;;;;;;44.25;19.92;;;;;;;2.33;85.46;100452.22;5012449;28;20026;-88
2023/01/19 09:24:18;;;;;;;46.45;20.88;;;;;;;2.30;85.83;100460.09;5029231;28;20033;-88
2023/01/19 09:26:43;;;;;;;47.50;20.15;;;;;;;2.39;85.63;100467.81;5028697;28;20029;-88
2023/01/19 09:29:09;;;;;;;44.85;22.27;;;;;;;2.31;85.69;100456.59;5008356;28;20041;-88
2023/01/19 09:31:34;;;;;;;51.13;21.73;;;;;;;2.34;85.45;100464.41;5028928;28;20013;-88
2023/01/19 09:33:59;;;;;;;51.92;21.90;;;;;;;2.26;85.60;100448.84;5009095;28;20034;-88
2023/01/19 09:36:24;;;;;;;44.25;21.23;;;;;;;2.40;85.64;100461.69;5028409;28;20365;-88
2023/01/19 09:38:50;;;;;;;45.15;22.30;;;;;;;2.48;85.56;100464.22;5015826;28;20124;-88
2023/01/19 09:41:20;;;;;;;41.25;20.48;;;;;;;2.51;85.42;100470.25;5031108;28;20497;-87
2023/01/19 09:43:58;;;;;;;41.30;19.77;;;;;;;2.66;85.23;100470.91;5029896;28;20619;-88
2023/01/19 09:46:32;;;;;;;50.83;21.88;;;;;;;2.86;85.00;100474.13;5028900;28;20028;-88
2023/01/19 09:49:00;;;;;;;50.70;21.25;;;;;;;2.92;84.33;100463.59;5025821;28;20064;-88
2023/01/19 09:51:31;;;;;;;49.60;24.50;;;;;;;3.12;84.36;100489.38;5028076;28;20025;-87
2023/01/19 09:54:18;;;;;;;42.03;22.03;;;;;;;3.62;82.84;100482.47;5010157;28;20029;-88
2023/01/19 09:56:44;;;;;;;42.55;20.80;;;;;;;4.17;80.67;100485.84;5009396;28;20643;-88
2023/01/19 09:59:19;;;;;;;41.88;20.50;;;;;;;5.15;79.33;100478.47;5022260;28;20028;-88
2023/01/19 10:01:55;;;;;;;36.20;18.80;;;;;;;5.59;76.32;100490.47;4995258;28;20082;-88
2023/01/19 10:04:32;;;;;;;29.23;17.30;;;;;;;6.58;75.31;100487.81;5026812;28;20401;-87
2023/01/19 10:07:07;;;;;;;31.15;16.58;;;;;;;7.11;73.34;100489.69;5030250;28;20033;-87
2023/01/19 10:10:10;;;;;;;27.15;13.68;;;;;;;7.81;71.70;100499.69;5011106;28;20037;-87
2023/01/19 10:12:58;;;;;;;27.83;14.85;;;;;;;8.03;67.67;100499.81;5032925;28;20036;-87
2023/01/19 10:15:59;;;;;;;33.47;15.02;;;;;;;8.46;66.28;100496.50;5010971;28;20076;-87
2023/01/19 10:18:33;;;;;;;26.27;13.63;;;;;;;8.05;64.33;100501.44;5024124;28;20096;-87
2023/01/19 10:21:04;;;;;;;24.38;12.55;;;;;;;7.74;66.83;100496.41;5030682;28;20025;-87
2023/01/19 10:23:35;;;;;;;23.85;12.07;;;;;;;7.11;67.78;100506.31;5024829;28;20040;-87
2023/01/19 10:26:07;;;;;;;20.75;12.30;;;;;;;6.71;69.59;100503.19;5030543;28;20030;-87
2023/01/19 10:28:33;;;;;;;25.55;14.38;;;;;;;6.26;70.03;100499.22;5028795;28;20033;-87
2023/01/19 10:30:59;;;;;;;22.55;12.50;;;;;;;6.76;70.33;100496.03;5027985;28;21877;-88
2023/01/19 10:33:24;;;;;;;24.27;14.00;;;;;;;7.70;68.43;100499.19;5021490;28;20035;-87
2023/01/19 10:35:49;;;;;;;26.40;13.32;;;;;;;9.19;66.23;100490.19;5029642;28;20028;-87
2023/01/19 10:38:20;;;;;;;23.13;12.18;;;;;;;10.28;59.91;100486.47;5010763;28;20075;-88
2023/01/19 10:40:57;;;;;;;23.38;11.77;;;;;;;10.48;60.83;100496.97;5025162;28;20033;-87
2023/01/19 10:43:43;;;;;;;18.75;10.75;;;;;;;11.39;59.75;100503.31;5026014;28;20053;-88
2023/01/19 10:46:31;;;;;;;17.63;10.02;;;;;;;11.82;59.05;100509.13;5004645;28;20017;-88
2023/01/19 10:48:56;;;;;;;16.38;10.85;;;;;;;12.03;55.57;100491.31;5022897;28;20033;-88
2023/01/19 10:51:22;;;;;;;17.83;10.57;;;;;;;12.25;55.00;100497.19;5026049;28;20014;-88
2023/01/19 10:54:00;;;;;;;13.75;9.27;;;;;;;13.04;55.71;100505.28;5023714;28;20504;-88
2023/01/19 10:56:33;;;;;;;17.15;9.23;;;;;;;13.23;53.95;100511.31;5027746;28;20477;-88
2023/01/19 10:59:00;;;;;;;16.13;9.43;;;;;;;13.32;51.42;100504.63;5008572;28;20169;-88
2023/01/19 11:01:28;;;;;;;15.63;9.57;;;;;;;13.71;49.30;100505.94;5024889;28;20412;-88
2023/01/19 11:03:55;;;;;;;16.63;9.55;;;;;;;13.78;49.12;100496.66;5028331;28;20112;-87
2023/01/19 11:06:27;;;;;;;18.02;10.20;;;;;;;13.84;51.20;100495.44;5024764;28;20029;-88
2023/01/19 11:09:07;;;;;;;16.25;8.68;;;;;;;13.91;50.12;100507.41;5023703;28;20030;-88
2023/01/19 11:11:41;;;;;;;14.93;8.88;;;;;;;13.46;49.33;100485.25;5025693;28;20053;-87
2023/01/19 11:14:11;;;;;;;18.27;8.70;;;;;;;13.58;48.21;100502.28;5008238;28;20033;-88
2023/01/19 11:16:38;;;;;;;17.77;9.15;;;;;;;13.36;46.57;100502.66;5008844;28;20030;-88
2023/01/19 11:19:06;;;;;;;17.85;9.43;;;;;;;13.25;47.68;100501.47;5027281;28;20544;-88
2023/01/19 11:21:32;;;;;;;18.17;9.73;;;;;;;13.33;49.38;100502.81;5026804;28;20079;-88
2023/01/19 11:24:04;;;;;;;12.38;8.70;;;;;;;13.42;50.24;100495.19;5007616;28;20052;-88
2023/01/19 11:26:39;;;;;;;16.67;9.68;;;;;;;14.14;49.77;100506.91;5025637;28;20111;-88
2023/01/19 11:29:11;;;;;;;20.05;10.05;;;;;;;13.43;47.86;100506.66;5030624;28;20128;-88
2023/01/19 11:31:37;;;;;;;17.55;10.88;;;;;;;13.65;50.38;100504.47;5012866;28;20527;-88
2023/01/19 11:34:23;;;;;;;16.40;10.10;;;;;;;14.65;50.98;100493.19;5029541;28;20050;-88
2023/01/19 11:37:03;;;;;;;14.00;9.18;;;;;;;15.72;48.68;100499.59;5024375;28;20075;-87